ایروان, ارمنستان

07:31 AM AMT on اوت 30, 2015 (GMT +0400)
Zvartnots | | Change Station
CLOSE
Current Station
Airport
Location: Zvartnots,
Elevation: 2838 ft
Nearby Weather Stations

Elev 2838 ft 40.15 °N, 44.40 °E | Updated 31 minutes ago

Clear
صاف
59 °F
Feels Like 59 °F
N
2
باد متغير باد from متغير

امروز
High -- | Low -- °F
--% Chance of Precip.
دیروز
High -- | Low -- °F
Precip. -- در
6:27 AM 7:37 PM
ماه کامل, 100% visible
فشار 30.09 در
ديد 6.2 مايل، ميل (در برابر كيلومتر
ابری
قطره شبنم 55 °F
رطوبت 88%
بارش باران 0.00 در
برف عمیق Not available.
مادون قرمز Not available.
Pollen Not available.
تمیزی هوا Not available.
Flu Activity Not available.
METAR UDYZ 300300Z VRB01MPS 9999 NSC 15/13 Q1019 R09/0///70 NOSIG
فشار 30.09 در
ديد 6.2 مايل، ميل (در برابر كيلومتر
ابری
قطره شبنم 55 °F
رطوبت 88%
بارش باران 0.00 در
برف عمیق Not available.
مادون قرمز Not available.
Pollen Not available.
تمیزی هوا Not available.
Flu Activity Not available.
METAR UDYZ 300300Z VRB01MPS 9999 NSC 15/13 Q1019 R09/0///70 NOSIG

10-Day Weather Forecast

×

Almanac

ستاره شناسی

Aug. 30, 2015 Rise Set
وقت حقیقی
تاریک و روشن اجتماعی
تاریک روشن دریایی
شفق و فلق نجومی
ماه
میزان روشنایی روز
طول روز
Tomorrow will be .
, % of the Moon is Illuminated

Today's Extremes

Country Highs Country Lows

Community

WunderPhotos

Upload Photos

1,850,870 photos uploaded!

WunderBlogs® & News

Nearby

تمیزی هوا

  تمیزی هوا AQ Index آلاینده
Not available.

عمق برف

Station Depth Elevation

Earthquake Activity

شهر Distance Mag. Time & Date
Minimum magnitude displayed is 2.5.

Coastal Water Temperatures

منطقه درجه حرارت

Stations

Nearby Weather Stations

Station Location دما باد سرد قطره شبنم رطوبت باد Precip. Elev ارتقا دادن Type